Terminal Aerodrome Forecast
Issued by NWS

Home | Current Version | Previous Version | Text Only | Print | Product List | Glossary On
Versions: 1 2 3 4 5 6 7 8 9 10 11 12 13 14 15 16 17 18 19 20 21 22
000
FTUS43 KBIS 271700
TAFDIK
TAF
KDIK 271740Z 2718/2818 15018G23KT P6SM SCT024 OVC035
     FM272000 15015KT 6SM -FZRASG BR OVC020
     FM272200 17012KT P6SM OVC035
     FM280200 21010KT P6SM SCT020 BKN070=

USA.gov is the U.S. government's official web portal to all federal, state and local government web resources and services.